sensor_id;sensor_type;location;lat;lon;timestamp;temperature;humidity
3466;DHT22;1747;48.884;9.160;2023-04-06T00:00:52;3.20;99.90
3466;DHT22;1747;48.884;9.160;2023-04-06T00:03:19;3.20;99.90
3466;DHT22;1747;48.884;9.160;2023-04-06T00:05:47;3.10;99.90
3466;DHT22;1747;48.884;9.160;2023-04-06T00:08:14;3.10;99.90
3466;DHT22;1747;48.884;9.160;2023-04-06T00:10:41;3.10;99.90
3466;DHT22;1747;48.884;9.160;2023-04-06T00:13:09;3.10;99.90
3466;DHT22;1747;48.884;9.160;2023-04-06T00:15:36;3.00;99.90
3466;DHT22;1747;48.884;9.160;2023-04-06T00:18:03;3.10;99.90
3466;DHT22;1747;48.884;9.160;2023-04-06T00:20:30;3.10;99.90
3466;DHT22;1747;48.884;9.160;2023-04-06T00:22:57;3.00;99.90
3466;DHT22;1747;48.884;9.160;2023-04-06T00:25:24;2.90;99.90
3466;DHT22;1747;48.884;9.160;2023-04-06T00:27:51;2.70;99.90
3466;DHT22;1747;48.884;9.160;2023-04-06T00:30:19;2.70;99.90
3466;DHT22;1747;48.884;9.160;2023-04-06T00:32:46;2.60;99.90
3466;DHT22;1747;48.884;9.160;2023-04-06T00:35:13;2.70;99.90
3466;DHT22;1747;48.884;9.160;2023-04-06T00:37:40;2.70;99.90
3466;DHT22;1747;48.884;9.160;2023-04-06T00:40:08;2.60;99.90
3466;DHT22;1747;48.884;9.160;2023-04-06T00:42:35;2.60;99.90
3466;DHT22;1747;48.884;9.160;2023-04-06T00:45:03;2.60;99.90
3466;DHT22;1747;48.884;9.160;2023-04-06T00:47:32;2.60;99.90
3466;DHT22;1747;48.884;9.160;2023-04-06T00:49:59;2.60;99.90
3466;DHT22;1747;48.884;9.160;2023-04-06T00:52:26;2.70;99.90
3466;DHT22;1747;48.884;9.160;2023-04-06T00:54:53;2.70;99.90
3466;DHT22;1747;48.884;9.160;2023-04-06T00:57:20;2.60;99.90
3466;DHT22;1747;48.884;9.160;2023-04-06T00:59:47;2.40;99.90
3466;DHT22;1747;48.884;9.160;2023-04-06T01:02:14;2.40;99.90
3466;DHT22;1747;48.884;9.160;2023-04-06T01:04:42;2.30;99.90
3466;DHT22;1747;48.884;9.160;2023-04-06T01:07:09;2.10;99.90
3466;DHT22;1747;48.884;9.160;2023-04-06T01:09:36;2.10;99.90
3466;DHT22;1747;48.884;9.160;2023-04-06T01:12:03;2.00;99.90
3466;DHT22;1747;48.884;9.160;2023-04-06T01:14:30;2.00;99.90
3466;DHT22;1747;48.884;9.160;2023-04-06T01:16:58;2.00;99.90
3466;DHT22;1747;48.884;9.160;2023-04-06T01:19:25;1.90;99.90
3466;DHT22;1747;48.884;9.160;2023-04-06T01:21:54;1.90;99.90
3466;DHT22;1747;48.884;9.160;2023-04-06T01:24:22;1.90;99.90
3466;DHT22;1747;48.884;9.160;2023-04-06T01:26:49;2.00;99.90
3466;DHT22;1747;48.884;9.160;2023-04-06T01:29:16;2.00;99.90
3466;DHT22;1747;48.884;9.160;2023-04-06T01:31:42;2.00;99.90
3466;DHT22;1747;48.884;9.160;2023-04-06T01:34:09;2.10;99.90
3466;DHT22;1747;48.884;9.160;2023-04-06T01:36:36;2.10;99.90
3466;DHT22;1747;48.884;9.160;2023-04-06T01:39:03;2.00;99.90
3466;DHT22;1747;48.884;9.160;2023-04-06T01:41:31;2.00;99.90
3466;DHT22;1747;48.884;9.160;2023-04-06T01:43:58;1.90;99.90
3466;DHT22;1747;48.884;9.160;2023-04-06T01:46:25;1.70;99.90
3466;DHT22;1747;48.884;9.160;2023-04-06T01:48:52;1.60;99.90
3466;DHT22;1747;48.884;9.160;2023-04-06T01:51:19;1.60;99.90
3466;DHT22;1747;48.884;9.160;2023-04-06T01:53:46;1.40;99.90
3466;DHT22;1747;48.884;9.160;2023-04-06T01:56:13;1.40;99.90
3466;DHT22;1747;48.884;9.160;2023-04-06T01:58:42;1.40;99.90
3466;DHT22;1747;48.884;9.160;2023-04-06T02:01:09;1.30;99.90
3466;DHT22;1747;48.884;9.160;2023-04-06T02:03:35;1.40;99.90
3466;DHT22;1747;48.884;9.160;2023-04-06T02:06:03;1.30;99.90
3466;DHT22;1747;48.884;9.160;2023-04-06T02:08:30;1.30;99.90
3466;DHT22;1747;48.884;9.160;2023-04-06T02:10:57;1.30;99.90
3466;DHT22;1747;48.884;9.160;2023-04-06T02:13:24;1.40;99.90
3466;DHT22;1747;48.884;9.160;2023-04-06T02:15:52;1.40;99.90
3466;DHT22;1747;48.884;9.160;2023-04-06T02:18:19;1.40;99.90
3466;DHT22;1747;48.884;9.160;2023-04-06T02:20:46;1.30;99.90
3466;DHT22;1747;48.884;9.160;2023-04-06T02:23:13;1.40;99.90
3466;DHT22;1747;48.884;9.160;2023-04-06T02:25:40;1.30;99.90
3466;DHT22;1747;48.884;9.160;2023-04-06T02:28:07;1.20;99.90
3466;DHT22;1747;48.884;9.160;2023-04-06T02:30:34;1.30;99.90
3466;DHT22;1747;48.884;9.160;2023-04-06T02:33:02;1.30;99.90
3466;DHT22;1747;48.884;9.160;2023-04-06T02:35:30;1.30;99.90
3466;DHT22;1747;48.884;9.160;2023-04-06T02:37:57;1.40;99.90
3466;DHT22;1747;48.884;9.160;2023-04-06T02:40:24;1.50;99.90
3466;DHT22;1747;48.884;9.160;2023-04-06T02:42:51;1.40;99.90
3466;DHT22;1747;48.884;9.160;2023-04-06T02:45:17;1.40;99.90
3466;DHT22;1747;48.884;9.160;2023-04-06T02:47:44;1.30;99.90
3466;DHT22;1747;48.884;9.160;2023-04-06T02:50:13;1.30;99.90
3466;DHT22;1747;48.884;9.160;2023-04-06T02:52:40;1.30;99.90
3466;DHT22;1747;48.884;9.160;2023-04-06T02:55:07;1.30;99.90
3466;DHT22;1747;48.884;9.160;2023-04-06T02:57:34;1.30;99.90
3466;DHT22;1747;48.884;9.160;2023-04-06T03:00:02;1.30;99.90
3466;DHT22;1747;48.884;9.160;2023-04-06T03:02:29;1.30;99.90
3466;DHT22;1747;48.884;9.160;2023-04-06T03:04:56;1.30;99.90
3466;DHT22;1747;48.884;9.160;2023-04-06T03:07:24;1.40;99.90
3466;DHT22;1747;48.884;9.160;2023-04-06T03:09:51;1.40;99.90
3466;DHT22;1747;48.884;9.160;2023-04-06T03:12:17;1.50;99.90
3466;DHT22;1747;48.884;9.160;2023-04-06T03:14:44;1.50;99.90
3466;DHT22;1747;48.884;9.160;2023-04-06T03:17:11;1.50;99.90
3466;DHT22;1747;48.884;9.160;2023-04-06T03:19:38;1.60;99.90
3466;DHT22;1747;48.884;9.160;2023-04-06T03:22:05;1.70;99.90
3466;DHT22;1747;48.884;9.160;2023-04-06T03:24:33;1.60;99.90
3466;DHT22;1747;48.884;9.160;2023-04-06T03:27:00;1.60;99.90
3466;DHT22;1747;48.884;9.160;2023-04-06T03:29:27;1.50;99.90
3466;DHT22;1747;48.884;9.160;2023-04-06T03:31:54;1.40;99.90
3466;DHT22;1747;48.884;9.160;2023-04-06T03:34:21;1.40;99.90
3466;DHT22;1747;48.884;9.160;2023-04-06T03:36:47;1.30;99.90
3466;DHT22;1747;48.884;9.160;2023-04-06T03:39:15;1.30;99.90
3466;DHT22;1747;48.884;9.160;2023-04-06T03:41:43;1.40;99.90
3466;DHT22;1747;48.884;9.160;2023-04-06T03:44:13;1.50;99.90
3466;DHT22;1747;48.884;9.160;2023-04-06T03:46:40;1.50;99.90
3466;DHT22;1747;48.884;9.160;2023-04-06T03:49:07;1.50;99.90
3466;DHT22;1747;48.884;9.160;2023-04-06T03:51:34;1.50;99.90
3466;DHT22;1747;48.884;9.160;2023-04-06T03:54:01;1.40;99.90
3466;DHT22;1747;48.884;9.160;2023-04-06T03:56:28;1.40;99.90
3466;DHT22;1747;48.884;9.160;2023-04-06T03:58:56;1.30;99.90
3466;DHT22;1747;48.884;9.160;2023-04-06T04:01:23;1.30;99.90
3466;DHT22;1747;48.884;9.160;2023-04-06T04:03:50;1.20;99.90
3466;DHT22;1747;48.884;9.160;2023-04-06T04:06:17;1.30;99.90
3466;DHT22;1747;48.884;9.160;2023-04-06T04:08:44;1.20;99.90
3466;DHT22;1747;48.884;9.160;2023-04-06T04:11:11;1.30;99.90
3466;DHT22;1747;48.884;9.160;2023-04-06T04:13:38;1.30;99.90
3466;DHT22;1747;48.884;9.160;2023-04-06T04:16:06;1.30;99.90
3466;DHT22;1747;48.884;9.160;2023-04-06T04:18:33;1.20;99.90
3466;DHT22;1747;48.884;9.160;2023-04-06T04:21:00;1.20;99.90
3466;DHT22;1747;48.884;9.160;2023-04-06T04:23:27;1.10;99.90
3466;DHT22;1747;48.884;9.160;2023-04-06T04:25:54;1.10;99.90
3466;DHT22;1747;48.884;9.160;2023-04-06T04:28:21;1.10;99.90
3466;DHT22;1747;48.884;9.160;2023-04-06T04:30:48;1.20;99.90
3466;DHT22;1747;48.884;9.160;2023-04-06T04:33:16;1.20;99.90
3466;DHT22;1747;48.884;9.160;2023-04-06T04:35:43;1.20;99.90
3466;DHT22;1747;48.884;9.160;2023-04-06T04:38:10;1.20;99.90
3466;DHT22;1747;48.884;9.160;2023-04-06T04:40:36;1.20;99.90
3466;DHT22;1747;48.884;9.160;2023-04-06T04:43:03;1.30;99.90
3466;DHT22;1747;48.884;9.160;2023-04-06T04:45:30;1.30;99.90
3466;DHT22;1747;48.884;9.160;2023-04-06T04:47:57;1.20;99.90
3466;DHT22;1747;48.884;9.160;2023-04-06T04:50:26;1.20;99.90
3466;DHT22;1747;48.884;9.160;2023-04-06T04:52:53;1.10;99.90
3466;DHT22;1747;48.884;9.160;2023-04-06T04:55:20;0.90;99.90
3466;DHT22;1747;48.884;9.160;2023-04-06T04:57:47;0.90;99.90
3466;DHT22;1747;48.884;9.160;2023-04-06T05:00:14;0.90;99.90
3466;DHT22;1747;48.884;9.160;2023-04-06T05:02:41;0.90;99.90
3466;DHT22;1747;48.884;9.160;2023-04-06T05:05:08;1.00;99.90
3466;DHT22;1747;48.884;9.160;2023-04-06T05:07:37;1.00;99.90
3466;DHT22;1747;48.884;9.160;2023-04-06T05:10:04;1.00;99.90
3466;DHT22;1747;48.884;9.160;2023-04-06T05:12:31;1.10;99.90
3466;DHT22;1747;48.884;9.160;2023-04-06T05:14:58;1.20;99.90
3466;DHT22;1747;48.884;9.160;2023-04-06T05:17:25;1.20;99.90
3466;DHT22;1747;48.884;9.160;2023-04-06T05:19:52;1.20;99.90
3466;DHT22;1747;48.884;9.160;2023-04-06T05:22:19;1.30;99.90
3466;DHT22;1747;48.884;9.160;2023-04-06T05:24:47;1.20;99.90
3466;DHT22;1747;48.884;9.160;2023-04-06T05:27:14;1.30;99.90
3466;DHT22;1747;48.884;9.160;2023-04-06T05:29:41;1.30;99.90
3466;DHT22;1747;48.884;9.160;2023-04-06T05:32:08;1.40;99.90
3466;DHT22;1747;48.884;9.160;2023-04-06T05:34:35;1.40;99.90
3466;DHT22;1747;48.884;9.160;2023-04-06T05:37:03;1.40;99.90
3466;DHT22;1747;48.884;9.160;2023-04-06T05:39:30;1.50;99.90
3466;DHT22;1747;48.884;9.160;2023-04-06T05:41:58;1.60;99.90
3466;DHT22;1747;48.884;9.160;2023-04-06T05:44:25;1.60;99.90
3466;DHT22;1747;48.884;9.160;2023-04-06T05:46:52;1.70;99.90
3466;DHT22;1747;48.884;9.160;2023-04-06T05:49:19;1.70;99.90
3466;DHT22;1747;48.884;9.160;2023-04-06T05:51:45;1.80;99.90
3466;DHT22;1747;48.884;9.160;2023-04-06T05:54:12;1.90;99.90
3466;DHT22;1747;48.884;9.160;2023-04-06T05:56:39;1.90;99.90
3466;DHT22;1747;48.884;9.160;2023-04-06T05:59:07;2.00;99.90
3466;DHT22;1747;48.884;9.160;2023-04-06T06:01:34;2.10;99.90
3466;DHT22;1747;48.884;9.160;2023-04-06T06:04:01;2.20;99.90
3466;DHT22;1747;48.884;9.160;2023-04-06T06:06:29;2.30;99.90
3466;DHT22;1747;48.884;9.160;2023-04-06T06:08:56;2.30;99.90
3466;DHT22;1747;48.884;9.160;2023-04-06T06:11:24;2.40;99.90
3466;DHT22;1747;48.884;9.160;2023-04-06T06:13:51;2.40;99.90
3466;DHT22;1747;48.884;9.160;2023-04-06T06:16:20;2.40;99.90
3466;DHT22;1747;48.884;9.160;2023-04-06T06:18:47;2.50;99.90
3466;DHT22;1747;48.884;9.160;2023-04-06T06:21:14;2.60;99.90
3466;DHT22;1747;48.884;9.160;2023-04-06T06:23:42;2.70;99.90
3466;DHT22;1747;48.884;9.160;2023-04-06T06:26:09;2.80;99.90
3466;DHT22;1747;48.884;9.160;2023-04-06T06:28:36;2.80;99.90
3466;DHT22;1747;48.884;9.160;2023-04-06T06:31:06;2.90;99.90
3466;DHT22;1747;48.884;9.160;2023-04-06T06:33:35;2.90;99.90
3466;DHT22;1747;48.884;9.160;2023-04-06T06:36:02;3.00;99.90
3466;DHT22;1747;48.884;9.160;2023-04-06T06:38:29;3.10;99.90
3466;DHT22;1747;48.884;9.160;2023-04-06T06:40:56;3.10;99.90
3466;DHT22;1747;48.884;9.160;2023-04-06T06:43:23;3.20;99.90
3466;DHT22;1747;48.884;9.160;2023-04-06T06:45:51;3.30;99.90
3466;DHT22;1747;48.884;9.160;2023-04-06T06:48:18;3.30;99.90
3466;DHT22;1747;48.884;9.160;2023-04-06T06:50:48;3.40;99.90
3466;DHT22;1747;48.884;9.160;2023-04-06T06:53:15;3.50;99.90
3466;DHT22;1747;48.884;9.160;2023-04-06T06:55:42;3.50;99.90
3466;DHT22;1747;48.884;9.160;2023-04-06T06:58:10;3.70;99.90
3466;DHT22;1747;48.884;9.160;2023-04-06T07:00:37;3.80;99.90
3466;DHT22;1747;48.884;9.160;2023-04-06T07:03:04;3.80;99.90
3466;DHT22;1747;48.884;9.160;2023-04-06T07:05:31;3.90;99.90
3466;DHT22;1747;48.884;9.160;2023-04-06T07:07:59;4.00;99.90
3466;DHT22;1747;48.884;9.160;2023-04-06T07:10:26;4.10;99.90
3466;DHT22;1747;48.884;9.160;2023-04-06T07:12:53;4.20;99.90
3466;DHT22;1747;48.884;9.160;2023-04-06T07:15:20;4.20;99.90
3466;DHT22;1747;48.884;9.160;2023-04-06T07:17:47;4.30;99.90
3466;DHT22;1747;48.884;9.160;2023-04-06T07:20:14;4.40;99.90
3466;DHT22;1747;48.884;9.160;2023-04-06T07:22:43;4.50;99.90
3466;DHT22;1747;48.884;9.160;2023-04-06T07:25:11;4.50;99.90
3466;DHT22;1747;48.884;9.160;2023-04-06T07:27:38;4.60;99.90
3466;DHT22;1747;48.884;9.160;2023-04-06T07:30:06;4.80;99.90
3466;DHT22;1747;48.884;9.160;2023-04-06T07:32:33;4.90;99.90
3466;DHT22;1747;48.884;9.160;2023-04-06T07:35:01;5.00;99.90
3466;DHT22;1747;48.884;9.160;2023-04-06T07:37:28;5.20;99.90
3466;DHT22;1747;48.884;9.160;2023-04-06T07:39:55;5.30;99.90
3466;DHT22;1747;48.884;9.160;2023-04-06T07:42:23;5.40;99.90
3466;DHT22;1747;48.884;9.160;2023-04-06T07:44:50;5.50;99.90
3466;DHT22;1747;48.884;9.160;2023-04-06T07:47:19;5.70;99.90
3466;DHT22;1747;48.884;9.160;2023-04-06T07:49:46;5.80;99.90
3466;DHT22;1747;48.884;9.160;2023-04-06T07:52:13;6.00;99.90
3466;DHT22;1747;48.884;9.160;2023-04-06T07:54:40;6.10;99.90
3466;DHT22;1747;48.884;9.160;2023-04-06T07:57:09;6.20;99.90
3466;DHT22;1747;48.884;9.160;2023-04-06T07:59:38;6.40;99.90
3466;DHT22;1747;48.884;9.160;2023-04-06T08:02:05;6.50;99.90
3466;DHT22;1747;48.884;9.160;2023-04-06T08:04:35;6.70;99.90
3466;DHT22;1747;48.884;9.160;2023-04-06T08:07:02;6.80;99.90
3466;DHT22;1747;48.884;9.160;2023-04-06T08:09:29;6.90;99.90
3466;DHT22;1747;48.884;9.160;2023-04-06T08:11:56;7.10;99.90
3466;DHT22;1747;48.884;9.160;2023-04-06T08:14:23;7.10;99.90
3466;DHT22;1747;48.884;9.160;2023-04-06T08:16:51;7.30;99.90
3466;DHT22;1747;48.884;9.160;2023-04-06T08:19:18;7.40;99.90
3466;DHT22;1747;48.884;9.160;2023-04-06T08:21:45;7.50;99.90
3466;DHT22;1747;48.884;9.160;2023-04-06T08:24:12;7.70;99.90
3466;DHT22;1747;48.884;9.160;2023-04-06T08:26:40;7.90;99.90
3466;DHT22;1747;48.884;9.160;2023-04-06T08:29:07;8.00;99.90
3466;DHT22;1747;48.884;9.160;2023-04-06T08:31:34;8.10;99.90
3466;DHT22;1747;48.884;9.160;2023-04-06T08:34:03;8.20;99.90
3466;DHT22;1747;48.884;9.160;2023-04-06T08:36:30;8.40;99.90
3466;DHT22;1747;48.884;9.160;2023-04-06T08:39:00;8.50;99.90
3466;DHT22;1747;48.884;9.160;2023-04-06T08:41:27;8.70;99.70
3466;DHT22;1747;48.884;9.160;2023-04-06T08:43:56;8.80;99.40
3466;DHT22;1747;48.884;9.160;2023-04-06T08:46:24;9.00;99.70
3466;DHT22;1747;48.884;9.160;2023-04-06T08:48:55;9.10;99.90
3466;DHT22;1747;48.884;9.160;2023-04-06T08:51:24;9.20;98.40
3466;DHT22;1747;48.884;9.160;2023-04-06T08:53:52;9.30;98.10
3466;DHT22;1747;48.884;9.160;2023-04-06T08:56:21;9.50;97.80
3466;DHT22;1747;48.884;9.160;2023-04-06T08:58:48;9.60;97.00
3466;DHT22;1747;48.884;9.160;2023-04-06T09:01:18;9.70;96.60
3466;DHT22;1747;48.884;9.160;2023-04-06T09:03:48;9.70;96.10
3466;DHT22;1747;48.884;9.160;2023-04-06T09:06:16;9.70;95.30
3466;DHT22;1747;48.884;9.160;2023-04-06T09:08:44;9.80;95.40
3466;DHT22;1747;48.884;9.160;2023-04-06T09:11:11;10.00;95.50
3466;DHT22;1747;48.884;9.160;2023-04-06T09:13:45;10.00;95.30
3466;DHT22;1747;48.884;9.160;2023-04-06T09:16:12;10.10;95.30
3466;DHT22;1747;48.884;9.160;2023-04-06T09:18:39;10.20;95.70
3466;DHT22;1747;48.884;9.160;2023-04-06T09:21:07;10.40;93.70
3466;DHT22;1747;48.884;9.160;2023-04-06T09:23:35;10.50;93.30
3466;DHT22;1747;48.884;9.160;2023-04-06T09:26:08;10.70;92.70
3466;DHT22;1747;48.884;9.160;2023-04-06T09:28:43;10.80;92.40
3466;DHT22;1747;48.884;9.160;2023-04-06T09:31:11;10.80;92.70
3466;DHT22;1747;48.884;9.160;2023-04-06T09:33:38;10.90;91.40
3466;DHT22;1747;48.884;9.160;2023-04-06T09:36:06;11.10;91.10
3466;DHT22;1747;48.884;9.160;2023-04-06T09:38:36;11.10;90.10
3466;DHT22;1747;48.884;9.160;2023-04-06T09:41:03;11.20;90.00
3466;DHT22;1747;48.884;9.160;2023-04-06T09:43:32;11.30;90.00
3466;DHT22;1747;48.884;9.160;2023-04-06T09:46:00;11.40;85.50
3466;DHT22;1747;48.884;9.160;2023-04-06T09:48:31;11.50;85.80
3466;DHT22;1747;48.884;9.160;2023-04-06T09:51:03;11.60;83.20
3466;DHT22;1747;48.884;9.160;2023-04-06T09:53:31;11.70;81.40
3466;DHT22;1747;48.884;9.160;2023-04-06T09:56:02;11.60;87.10
3466;DHT22;1747;48.884;9.160;2023-04-06T09:58:34;11.80;90.80
3466;DHT22;1747;48.884;9.160;2023-04-06T10:01:05;11.90;87.70
3466;DHT22;1747;48.884;9.160;2023-04-06T10:03:41;12.00;84.70
3466;DHT22;1747;48.884;9.160;2023-04-06T10:06:13;12.10;82.00
3466;DHT22;1747;48.884;9.160;2023-04-06T10:08:43;12.10;84.90
3466;DHT22;1747;48.884;9.160;2023-04-06T10:11:12;12.20;83.50
3466;DHT22;1747;48.884;9.160;2023-04-06T10:13:41;12.40;80.50
3466;DHT22;1747;48.884;9.160;2023-04-06T10:16:08;12.50;78.40
3466;DHT22;1747;48.884;9.160;2023-04-06T10:18:36;12.50;80.90
3466;DHT22;1747;48.884;9.160;2023-04-06T10:21:08;12.60;78.80
3466;DHT22;1747;48.884;9.160;2023-04-06T10:23:45;12.70;76.30
3466;DHT22;1747;48.884;9.160;2023-04-06T10:26:15;12.90;77.60
3466;DHT22;1747;48.884;9.160;2023-04-06T10:28:46;12.90;77.90
3466;DHT22;1747;48.884;9.160;2023-04-06T10:31:13;12.80;74.80
3466;DHT22;1747;48.884;9.160;2023-04-06T10:33:41;13.00;74.80
3466;DHT22;1747;48.884;9.160;2023-04-06T10:36:11;13.00;76.70
3466;DHT22;1747;48.884;9.160;2023-04-06T10:38:40;13.20;73.20
3466;DHT22;1747;48.884;9.160;2023-04-06T10:41:08;13.10;69.50
3466;DHT22;1747;48.884;9.160;2023-04-06T10:43:37;13.10;71.30
3466;DHT22;1747;48.884;9.160;2023-04-06T10:46:06;13.20;72.70
3466;DHT22;1747;48.884;9.160;2023-04-06T10:48:38;13.00;69.90
3466;DHT22;1747;48.884;9.160;2023-04-06T10:51:08;13.10;74.20
3466;DHT22;1747;48.884;9.160;2023-04-06T10:53:36;12.90;69.30
3466;DHT22;1747;48.884;9.160;2023-04-06T10:56:09;13.20;71.30
3466;DHT22;1747;48.884;9.160;2023-04-06T10:58:38;13.40;71.20
3466;DHT22;1747;48.884;9.160;2023-04-06T11:01:07;13.40;71.10
3466;DHT22;1747;48.884;9.160;2023-04-06T11:03:43;13.60;71.90
3466;DHT22;1747;48.884;9.160;2023-04-06T11:06:10;13.60;72.30
3466;DHT22;1747;48.884;9.160;2023-04-06T11:08:38;13.80;68.90
3466;DHT22;1747;48.884;9.160;2023-04-06T11:11:06;14.00;68.10
3466;DHT22;1747;48.884;9.160;2023-04-06T11:13:38;14.10;68.70
3466;DHT22;1747;48.884;9.160;2023-04-06T11:16:11;14.20;67.50
3466;DHT22;1747;48.884;9.160;2023-04-06T11:18:45;14.30;67.70
3466;DHT22;1747;48.884;9.160;2023-04-06T11:21:12;14.40;67.80
3466;DHT22;1747;48.884;9.160;2023-04-06T11:23:39;14.40;65.60
3466;DHT22;1747;48.884;9.160;2023-04-06T11:26:11;14.50;66.60
3466;DHT22;1747;48.884;9.160;2023-04-06T11:28:40;14.50;65.50
3466;DHT22;1747;48.884;9.160;2023-04-06T11:31:09;14.60;67.40
3466;DHT22;1747;48.884;9.160;2023-04-06T11:33:36;14.40;64.70
3466;DHT22;1747;48.884;9.160;2023-04-06T11:36:07;14.50;67.70
3466;DHT22;1747;48.884;9.160;2023-04-06T11:38:34;14.70;68.80
3466;DHT22;1747;48.884;9.160;2023-04-06T11:41:05;14.70;69.60
3466;DHT22;1747;48.884;9.160;2023-04-06T11:43:33;14.60;68.70
3466;DHT22;1747;48.884;9.160;2023-04-06T11:46:01;14.80;68.20
3466;DHT22;1747;48.884;9.160;2023-04-06T11:48:30;15.00;67.50
3466;DHT22;1747;48.884;9.160;2023-04-06T11:50:59;15.10;65.00
3466;DHT22;1747;48.884;9.160;2023-04-06T11:53:27;15.00;63.60
3466;DHT22;1747;48.884;9.160;2023-04-06T11:55:55;15.20;64.80
3466;DHT22;1747;48.884;9.160;2023-04-06T11:58:29;15.40;64.20
3466;DHT22;1747;48.884;9.160;2023-04-06T12:01:03;15.20;60.10
3466;DHT22;1747;48.884;9.160;2023-04-06T12:03:36;15.40;61.70
3466;DHT22;1747;48.884;9.160;2023-04-06T12:06:04;15.60;61.20
3466;DHT22;1747;48.884;9.160;2023-04-06T12:08:34;15.90;60.10
3466;DHT22;1747;48.884;9.160;2023-04-06T12:11:03;16.40;58.50
3466;DHT22;1747;48.884;9.160;2023-04-06T12:13:34;16.80;57.80
3466;DHT22;1747;48.884;9.160;2023-04-06T12:16:02;17.10;58.40
3466;DHT22;1747;48.884;9.160;2023-04-06T12:18:30;17.60;55.80
3466;DHT22;1747;48.884;9.160;2023-04-06T12:20:59;18.00;54.40
3466;DHT22;1747;48.884;9.160;2023-04-06T12:23:26;18.40;53.90
3466;DHT22;1747;48.884;9.160;2023-04-06T12:25:53;18.70;53.70
3466;DHT22;1747;48.884;9.160;2023-04-06T12:28:20;19.10;53.60
3466;DHT22;1747;48.884;9.160;2023-04-06T12:30:48;19.30;52.30
3466;DHT22;1747;48.884;9.160;2023-04-06T12:33:16;19.50;50.30
3466;DHT22;1747;48.884;9.160;2023-04-06T12:35:43;19.90;52.40
3466;DHT22;1747;48.884;9.160;2023-04-06T12:38:12;20.20;51.00
3466;DHT22;1747;48.884;9.160;2023-04-06T12:40:39;20.40;48.60
3466;DHT22;1747;48.884;9.160;2023-04-06T12:43:06;20.50;49.20
3466;DHT22;1747;48.884;9.160;2023-04-06T12:45:37;21.00;50.10
3466;DHT22;1747;48.884;9.160;2023-04-06T12:48:05;21.40;49.10
3466;DHT22;1747;48.884;9.160;2023-04-06T12:50:33;21.90;50.40
3466;DHT22;1747;48.884;9.160;2023-04-06T12:53:00;22.20;50.20
3466;DHT22;1747;48.884;9.160;2023-04-06T12:55:29;22.60;48.70
3466;DHT22;1747;48.884;9.160;2023-04-06T12:57:57;23.10;46.40
3466;DHT22;1747;48.884;9.160;2023-04-06T13:00:25;23.40;48.00
3466;DHT22;1747;48.884;9.160;2023-04-06T13:02:52;23.50;44.60
3466;DHT22;1747;48.884;9.160;2023-04-06T13:05:19;23.40;46.30
3466;DHT22;1747;48.884;9.160;2023-04-06T13:07:46;23.40;46.10
3466;DHT22;1747;48.884;9.160;2023-04-06T13:10:13;23.50;44.10
3466;DHT22;1747;48.884;9.160;2023-04-06T13:12:42;23.50;44.50
3466;DHT22;1747;48.884;9.160;2023-04-06T13:15:10;23.90;43.20
3466;DHT22;1747;48.884;9.160;2023-04-06T13:17:38;23.90;42.40
3466;DHT22;1747;48.884;9.160;2023-04-06T13:20:06;23.80;42.60
3466;DHT22;1747;48.884;9.160;2023-04-06T13:22:34;23.60;43.40
3466;DHT22;1747;48.884;9.160;2023-04-06T13:25:02;23.40;43.90
3466;DHT22;1747;48.884;9.160;2023-04-06T13:27:29;23.00;44.40
3466;DHT22;1747;48.884;9.160;2023-04-06T13:30:00;23.20;45.00
3466;DHT22;1747;48.884;9.160;2023-04-06T13:32:29;23.10;42.30
3466;DHT22;1747;48.884;9.160;2023-04-06T13:34:57;23.10;43.70
3466;DHT22;1747;48.884;9.160;2023-04-06T13:37:24;23.30;46.10
3466;DHT22;1747;48.884;9.160;2023-04-06T13:39:52;23.50;47.80
3466;DHT22;1747;48.884;9.160;2023-04-06T13:42:19;23.60;45.20
3466;DHT22;1747;48.884;9.160;2023-04-06T13:44:47;24.00;44.40
3466;DHT22;1747;48.884;9.160;2023-04-06T13:47:17;24.00;43.00
3466;DHT22;1747;48.884;9.160;2023-04-06T13:49:46;23.60;43.00
3466;DHT22;1747;48.884;9.160;2023-04-06T13:52:13;23.50;43.20
3466;DHT22;1747;48.884;9.160;2023-04-06T13:54:41;22.90;42.50
3466;DHT22;1747;48.884;9.160;2023-04-06T13:57:08;22.40;42.50
3466;DHT22;1747;48.884;9.160;2023-04-06T13:59:35;21.70;43.00
3466;DHT22;1747;48.884;9.160;2023-04-06T14:02:03;21.20;43.50
3466;DHT22;1747;48.884;9.160;2023-04-06T14:04:32;20.70;44.40
3466;DHT22;1747;48.884;9.160;2023-04-06T14:07:00;20.40;44.50
3466;DHT22;1747;48.884;9.160;2023-04-06T14:09:29;20.40;46.20
3466;DHT22;1747;48.884;9.160;2023-04-06T14:11:57;20.70;45.20
3466;DHT22;1747;48.884;9.160;2023-04-06T14:14:26;20.90;46.60
3466;DHT22;1747;48.884;9.160;2023-04-06T14:16:53;21.30;44.90
3466;DHT22;1747;48.884;9.160;2023-04-06T14:19:21;21.50;44.50
3466;DHT22;1747;48.884;9.160;2023-04-06T14:21:50;21.90;46.80
3466;DHT22;1747;48.884;9.160;2023-04-06T14:24:18;22.30;43.50
3466;DHT22;1747;48.884;9.160;2023-04-06T14:26:45;22.40;42.60
3466;DHT22;1747;48.884;9.160;2023-04-06T14:29:13;22.80;42.30
3466;DHT22;1747;48.884;9.160;2023-04-06T14:31:41;22.90;42.10
3466;DHT22;1747;48.884;9.160;2023-04-06T14:34:08;23.00;43.30
3466;DHT22;1747;48.884;9.160;2023-04-06T14:36:34;23.00;43.50
3466;DHT22;1747;48.884;9.160;2023-04-06T14:39:05;23.10;43.80
3466;DHT22;1747;48.884;9.160;2023-04-06T14:41:33;22.80;43.90
3466;DHT22;1747;48.884;9.160;2023-04-06T14:44:00;22.50;45.20
3466;DHT22;1747;48.884;9.160;2023-04-06T14:46:27;22.20;44.10
3466;DHT22;1747;48.884;9.160;2023-04-06T14:48:54;22.40;44.00
3466;DHT22;1747;48.884;9.160;2023-04-06T14:51:24;22.00;43.20
3466;DHT22;1747;48.884;9.160;2023-04-06T14:53:52;21.40;43.50
3466;DHT22;1747;48.884;9.160;2023-04-06T14:56:21;20.70;44.30
3466;DHT22;1747;48.884;9.160;2023-04-06T14:58:48;20.70;46.20
3466;DHT22;1747;48.884;9.160;2023-04-06T15:01:17;21.00;44.40
3466;DHT22;1747;48.884;9.160;2023-04-06T15:03:45;21.20;44.80
3466;DHT22;1747;48.884;9.160;2023-04-06T15:06:13;21.30;43.90
3466;DHT22;1747;48.884;9.160;2023-04-06T15:08:42;21.20;42.90
3466;DHT22;1747;48.884;9.160;2023-04-06T15:11:12;21.10;44.50
3466;DHT22;1747;48.884;9.160;2023-04-06T15:13:40;21.00;43.90
3466;DHT22;1747;48.884;9.160;2023-04-06T15:16:07;21.10;42.60
3466;DHT22;1747;48.884;9.160;2023-04-06T15:18:34;20.80;43.60
3466;DHT22;1747;48.884;9.160;2023-04-06T15:21:01;20.60;44.20
3466;DHT22;1747;48.884;9.160;2023-04-06T15:23:50;20.50;45.20
3466;DHT22;1747;48.884;9.160;2023-04-06T15:26:17;20.30;44.10
3466;DHT22;1747;48.884;9.160;2023-04-06T15:28:47;20.10;44.70
3466;DHT22;1747;48.884;9.160;2023-04-06T15:31:14;19.80;45.20
3466;DHT22;1747;48.884;9.160;2023-04-06T15:33:41;19.60;46.70
3466;DHT22;1747;48.884;9.160;2023-04-06T15:36:21;19.50;47.10
3466;DHT22;1747;48.884;9.160;2023-04-06T15:38:48;19.60;46.10
3466;DHT22;1747;48.884;9.160;2023-04-06T15:41:15;19.50;45.60
3466;DHT22;1747;48.884;9.160;2023-04-06T15:43:42;19.40;45.20
3466;DHT22;1747;48.884;9.160;2023-04-06T15:46:10;19.10;47.10
3466;DHT22;1747;48.884;9.160;2023-04-06T15:48:40;18.80;45.80
3466;DHT22;1747;48.884;9.160;2023-04-06T15:51:09;18.60;46.30
3466;DHT22;1747;48.884;9.160;2023-04-06T15:53:37;18.50;47.80
3466;DHT22;1747;48.884;9.160;2023-04-06T15:56:05;18.50;49.30
3466;DHT22;1747;48.884;9.160;2023-04-06T15:58:33;18.40;47.70
3466;DHT22;1747;48.884;9.160;2023-04-06T16:01:00;18.30;47.50
3466;DHT22;1747;48.884;9.160;2023-04-06T16:03:28;18.30;47.30
3466;DHT22;1747;48.884;9.160;2023-04-06T16:05:55;18.30;47.20
3466;DHT22;1747;48.884;9.160;2023-04-06T16:08:22;18.30;47.00
3466;DHT22;1747;48.884;9.160;2023-04-06T16:10:49;18.40;47.70
3466;DHT22;1747;48.884;9.160;2023-04-06T16:13:15;18.40;47.70